Time,TemperatureF,DewpointF,PressureIn,WindDirection,WindDirectionDegrees,WindSpeedMPH,WindSpeedGustMPH,Humidity,HourlyPrecipIn,Conditions,Clouds,dailyrainin,SoftwareType,DateUTC
2014-04-17 00:05:00,48.6,46.9,30.18,SW,217,0.0,-999.0,94,0.00,,,0.00,meteohub,2014-04-17 05:05:00,
2014-04-17 00:06:00,48.6,46.9,30.18,SW,217,0.0,-999.0,94,0.00,,,0.00,meteohub,2014-04-17 05:06:00,
2014-04-17 00:08:00,48.6,46.9,30.18,SW,217,0.0,-999.0,94,0.00,,,0.00,meteohub,2014-04-17 05:08:00,
2014-04-17 00:13:00,48.4,46.4,30.18,SW,217,0.0,0.0,93,0.00,,,0.00,meteohub,2014-04-17 05:13:00,
2014-04-17 00:18:00,48.6,46.0,30.18,SW,217,0.0,0.0,91,0.00,,,0.00,meteohub,2014-04-17 05:18:00,
2014-04-17 00:23:00,49.3,45.9,30.18,South,186,0.0,0.0,88,0.00,,,0.00,meteohub,2014-04-17 05:23:00,
2014-04-17 00:35:00,51.1,45.9,30.18,NE,53,0.0,5.0,82,0.00,,,0.00,meteohub,2014-04-17 05:35:00,
2014-04-17 00:40:00,51.6,46.0,30.18,ENE,72,1.0,5.0,81,0.00,,,0.00,meteohub,2014-04-17 05:40:00,
2014-04-17 00:45:00,52.0,46.0,30.18,SSE,167,0.0,6.0,80,0.00,,,0.00,meteohub,2014-04-17 05:45:00,
2014-04-17 00:50:00,52.2,46.2,30.18,SSW,192,1.0,5.0,80,0.00,,,0.00,meteohub,2014-04-17 05:50:00,
2014-04-17 00:55:00,52.3,46.4,30.18,East,90,0.0,3.0,80,0.00,,,0.00,meteohub,2014-04-17 05:55:00,
2014-04-17 01:00:00,52.5,46.6,30.18,ESE,116,0.0,3.0,80,0.00,,,0.00,meteohub,2014-04-17 06:00:00,
2014-04-17 01:05:00,52.5,46.6,30.18,SE,126,1.0,4.0,80,0.00,,,0.00,meteohub,2014-04-17 06:05:00,
2014-04-17 01:10:00,52.5,46.6,30.18,ENE,74,0.0,5.0,80,0.00,,,0.00,meteohub,2014-04-17 06:10:00,
2014-04-17 01:16:00,52.5,46.9,30.18,NNE,32,0.0,5.0,81,0.00,,,0.00,meteohub,2014-04-17 06:16:00,
2014-04-17 01:21:00,52.3,46.8,30.18,NNE,32,0.0,3.0,81,0.00,,,0.00,meteohub,2014-04-17 06:21:00,
2014-04-17 01:26:00,52.3,46.9,30.18,SE,146,4.0,4.0,82,0.00,,,0.00,meteohub,2014-04-17 06:26:00,
2014-04-17 01:31:00,52.3,47.3,30.18,ENE,74,0.0,4.0,83,0.00,,,0.00,meteohub,2014-04-17 06:31:00,
2014-04-17 01:36:00,52.3,47.3,30.18,ESE,113,1.0,4.0,83,0.00,,,0.00,meteohub,2014-04-17 06:36:00,
2014-04-17 01:41:00,52.3,47.7,30.18,ESE,113,0.0,4.0,84,0.00,,,0.00,meteohub,2014-04-17 06:41:00,
2014-04-17 01:46:00,52.5,47.8,30.18,NNW,345,0.0,2.0,84,0.00,,,0.00,meteohub,2014-04-17 06:46:00,
2014-04-17 01:51:00,52.5,47.8,30.18,WNW,299,0.0,2.0,84,0.00,,,0.00,meteohub,2014-04-17 06:51:00,
2014-04-17 01:56:00,52.3,48.0,30.18,WNW,299,0.0,2.0,85,0.00,,,0.00,meteohub,2014-04-17 06:56:00,
2014-04-17 02:01:00,52.2,47.8,30.18,WSW,250,0.0,2.0,85,0.00,,,0.00,meteohub,2014-04-17 07:01:00,
2014-04-17 02:06:00,52.0,47.8,30.18,WSW,250,0.0,1.0,86,0.00,,,0.00,meteohub,2014-04-17 07:06:00,
2014-04-17 02:11:00,51.8,48.0,30.18,WSW,250,0.0,1.0,87,0.00,,,0.00,meteohub,2014-04-17 07:11:00,
2014-04-17 02:16:00,51.6,47.8,30.18,SE,134,1.0,1.0,87,0.00,,,0.00,meteohub,2014-04-17 07:16:00,
2014-04-17 02:22:00,51.6,48.2,30.18,SE,127,0.0,1.0,88,0.00,,,0.00,meteohub,2014-04-17 07:22:00,
2014-04-17 02:27:00,51.6,48.2,30.18,SE,127,0.0,1.0,88,0.00,,,0.00,meteohub,2014-04-17 07:27:00,
2014-04-17 02:32:00,51.4,48.0,30.18,East,88,0.0,1.0,88,0.00,,,0.00,meteohub,2014-04-17 07:32:00,
2014-04-17 02:37:00,51.4,48.0,30.18,East,87,0.0,1.0,88,0.00,,,0.00,meteohub,2014-04-17 07:37:00,
2014-04-17 02:42:00,51.4,48.4,30.18,East,84,0.0,1.0,89,0.00,,,0.00,meteohub,2014-04-17 07:42:00,
2014-04-17 02:47:00,51.4,48.4,30.18,NW,326,0.0,2.0,89,0.00,,,0.00,meteohub,2014-04-17 07:47:00,
2014-04-17 02:52:00,51.4,48.4,30.18,West,281,0.0,2.0,89,0.00,,,0.00,meteohub,2014-04-17 07:52:00,
2014-04-17 02:57:00,51.6,48.6,30.18,NE,38,0.0,2.0,89,0.00,,,0.00,meteohub,2014-04-17 07:57:00,
2014-04-17 04:02:00,51.8,48.7,30.19,ENE,71,0.0,-999.0,89,-99.99,,,0.00,meteohub,2014-04-17 09:02:00,
2014-04-17 04:07:00,51.6,48.6,30.19,SE,138,0.0,3.0,89,0.00,,,0.00,meteohub,2014-04-17 09:07:00,
2014-04-17 04:12:00,51.6,48.7,30.19,South,178,0.0,3.0,90,0.00,,,0.00,meteohub,2014-04-17 09:12:00,
2014-04-17 04:17:00,51.6,48.7,30.19,NE,48,0.0,2.0,90,0.00,,,0.00,meteohub,2014-04-17 09:17:00,
2014-04-17 04:22:00,52.0,49.1,30.19,NE,34,0.0,4.0,90,0.00,,,0.00,meteohub,2014-04-17 09:22:00,
2014-04-17 04:27:00,52.2,49.3,30.19,South,180,2.0,4.0,90,0.00,,,0.00,meteohub,2014-04-17 09:27:00,
2014-04-17 04:32:00,52.3,49.3,30.19,ESE,114,7.0,8.0,89,0.00,,,0.00,meteohub,2014-04-17 09:32:00,
2014-04-17 04:37:00,52.5,49.5,30.19,ESE,115,0.0,8.0,89,0.00,,,0.00,meteohub,2014-04-17 09:37:00,
2014-04-17 04:42:00,52.9,49.6,30.19,ENE,59,1.0,8.0,89,0.00,,,0.00,meteohub,2014-04-17 09:42:00,
2014-04-17 04:47:00,52.9,49.5,30.19,ENE,76,0.0,7.0,88,0.00,,,0.00,meteohub,2014-04-17 09:47:00,
2014-04-17 04:52:00,53.1,49.6,30.19,ESE,117,1.0,6.0,88,0.00,,,0.00,meteohub,2014-04-17 09:52:00,
2014-04-17 05:02:00,53.1,49.6,30.19,SSE,153,0.0,5.0,88,0.00,,,0.00,meteohub,2014-04-17 10:02:00,
2014-04-17 05:07:00,53.1,49.6,30.19,SE,142,0.0,5.0,88,0.00,,,0.00,meteohub,2014-04-17 10:07:00,
2014-04-17 05:12:00,53.1,49.6,30.19,NNE,32,0.0,8.0,88,0.00,,,0.00,meteohub,2014-04-17 10:12:00,
2014-04-17 05:17:00,53.1,49.6,30.20,East,84,3.0,9.0,88,0.00,,,0.00,meteohub,2014-04-17 10:17:00,
2014-04-17 05:22:00,53.1,49.6,30.20,SE,135,0.0,9.0,88,0.00,,,0.00,meteohub,2014-04-17 10:22:00,
2014-04-17 05:27:00,53.1,49.6,30.20,SSW,194,0.0,9.0,88,0.00,,,0.00,meteohub,2014-04-17 10:27:00,
2014-04-17 05:32:00,53.1,49.6,30.20,NNE,20,0.0,5.0,88,0.00,,,0.00,meteohub,2014-04-17 10:32:00,
2014-04-17 05:37:00,53.1,49.8,30.20,NNE,32,0.0,5.0,89,0.00,,,0.00,meteohub,2014-04-17 10:37:00,
2014-04-17 05:42:00,53.1,49.6,30.20,SW,216,0.0,5.0,88,0.00,,,0.00,meteohub,2014-04-17 10:42:00,
2014-04-17 05:47:00,53.1,49.6,30.21,NNW,333,0.0,6.0,88,0.00,,,0.00,meteohub,2014-04-17 10:47:00,
2014-04-17 05:52:00,53.1,49.6,30.21,WSW,241,0.0,6.0,88,0.00,,,0.00,meteohub,2014-04-17 10:52:00,
2014-04-17 05:57:00,53.1,49.6,30.21,SE,125,3.0,6.0,88,0.00,,,0.00,meteohub,2014-04-17 10:57:00,
2014-04-17 06:02:00,52.9,49.5,30.22,ESE,103,1.0,4.0,88,0.00,,,0.00,meteohub,2014-04-17 11:02:00,
2014-04-17 06:07:00,53.1,49.6,30.22,North,355,0.0,6.0,88,0.00,,,0.00,meteohub,2014-04-17 11:07:00,
2014-04-17 06:12:00,53.2,49.8,30.22,East,96,1.0,7.0,88,0.00,,,0.00,meteohub,2014-04-17 11:12:00,
2014-04-17 06:17:00,53.2,49.8,30.22,ENE,72,0.0,7.0,88,0.00,,,0.00,meteohub,2014-04-17 11:17:00,
2014-04-17 06:22:00,53.2,49.5,30.22,South,181,0.0,6.0,87,0.00,,,0.00,meteohub,2014-04-17 11:22:00,
2014-04-17 06:27:00,53.2,49.5,30.22,NNE,24,2.0,9.0,87,0.00,,,0.00,meteohub,2014-04-17 11:27:00,
2014-04-17 06:32:00,53.4,49.6,30.22,NNE,21,0.0,9.0,87,0.00,,,0.00,meteohub,2014-04-17 11:32:00,
2014-04-17 06:37:00,53.4,49.6,30.22,NNE,15,1.0,5.0,87,0.00,,,0.00,meteohub,2014-04-17 11:37:00,
2014-04-17 06:42:00,53.4,49.6,30.22,NNE,30,1.0,6.0,87,0.00,,,0.00,meteohub,2014-04-17 11:42:00,
2014-04-17 06:47:00,53.4,49.6,30.22,NNW,348,3.0,6.0,87,0.00,,,0.00,meteohub,2014-04-17 11:47:00,
2014-04-17 06:52:00,53.2,49.5,30.22,NNE,20,6.0,6.0,87,0.00,,,0.00,meteohub,2014-04-17 11:52:00,
2014-04-17 06:57:00,53.4,49.6,30.22,NNE,27,0.0,9.0,87,0.00,,,0.00,meteohub,2014-04-17 11:57:00,
2014-04-17 07:02:00,53.4,49.6,30.23,ENE,69,2.0,9.0,87,0.00,,,0.00,meteohub,2014-04-17 12:02:00,
2014-04-17 07:07:00,53.4,49.3,30.23,ENE,61,0.0,9.0,86,0.00,,,0.00,meteohub,2014-04-17 12:07:00,
2014-04-17 07:12:00,53.8,49.6,30.23,SE,144,0.0,6.0,86,0.00,,,0.00,meteohub,2014-04-17 12:12:00,
2014-04-17 07:17:00,53.8,49.6,30.23,West,281,2.0,7.0,86,0.00,,,0.00,meteohub,2014-04-17 12:17:00,
2014-04-17 07:22:00,54.1,50.0,30.23,NE,35,1.0,7.0,86,0.00,,,0.00,meteohub,2014-04-17 12:22:00,
2014-04-17 07:27:00,54.5,50.0,30.24,NW,325,0.0,7.0,85,0.00,,,0.00,meteohub,2014-04-17 12:27:00,
2014-04-17 07:32:00,54.5,49.8,30.24,East,96,0.0,11.0,84,0.00,,,0.00,meteohub,2014-04-17 12:32:00,
2014-04-17 07:37:00,54.7,50.2,30.24,East,91,1.0,11.0,85,0.00,,,0.00,meteohub,2014-04-17 12:37:00,
2014-04-17 07:42:00,54.9,50.4,30.25,ESE,120,0.0,11.0,85,0.00,,,0.00,meteohub,2014-04-17 12:42:00,
2014-04-17 07:47:00,55.0,50.4,30.25,NW,320,0.0,5.0,84,0.00,,,0.00,meteohub,2014-04-17 12:47:00,
2014-04-17 07:52:00,55.0,50.4,30.24,ENE,74,4.0,6.0,84,0.00,,,0.00,meteohub,2014-04-17 12:52:00,
2014-04-17 07:57:00,55.0,50.4,30.24,NE,56,0.0,6.0,84,0.00,,,0.00,meteohub,2014-04-17 12:57:00,
2014-04-17 08:02:00,55.6,50.9,30.24,East,98,1.0,7.0,84,0.00,,,0.00,meteohub,2014-04-17 13:02:00,
2014-04-17 08:07:00,55.8,50.7,30.25,SSW,196,1.0,7.0,83,0.00,,,0.00,meteohub,2014-04-17 13:07:00,
2014-04-17 08:12:00,55.9,50.9,30.25,East,86,0.0,8.0,83,0.00,,,0.00,meteohub,2014-04-17 13:12:00,
2014-04-17 08:17:00,55.9,50.9,30.25,ESE,110,2.0,9.0,83,0.00,,,0.00,meteohub,2014-04-17 13:17:00,
2014-04-17 08:22:00,56.1,51.4,30.24,North,349,1.0,9.0,84,0.00,,,0.00,meteohub,2014-04-17 13:22:00,
2014-04-17 08:27:00,56.7,51.3,30.24,NE,42,1.0,7.0,82,0.00,,,0.00,meteohub,2014-04-17 13:27:00,
2014-04-17 08:32:00,57.4,51.6,30.24,NE,38,0.0,8.0,81,0.00,,,0.00,meteohub,2014-04-17 13:32:00,
2014-04-17 08:37:00,57.9,51.8,30.24,NNE,24,1.0,8.0,80,0.00,,,0.00,meteohub,2014-04-17 13:37:00,
2014-04-17 08:42:00,58.3,52.2,30.24,WNW,296,1.0,11.0,80,0.00,,,0.00,meteohub,2014-04-17 13:42:00,
2014-04-17 08:47:00,58.8,52.0,30.24,ENE,75,2.0,11.0,78,0.00,,,0.00,meteohub,2014-04-17 13:47:00,
2014-04-17 08:52:00,59.4,52.5,30.24,SE,136,4.0,11.0,78,0.00,,,0.00,meteohub,2014-04-17 13:52:00,
2014-04-17 08:57:00,59.5,52.3,30.25,East,81,5.0,11.0,77,0.00,,,0.00,meteohub,2014-04-17 13:57:00,
2014-04-17 09:02:00,59.7,52.5,30.24,SSE,152,3.0,12.0,77,0.00,,,0.00,meteohub,2014-04-17 14:02:00,
2014-04-17 09:07:00,60.3,52.7,30.25,East,80,2.0,12.0,76,0.00,,,0.00,meteohub,2014-04-17 14:07:00,
2014-04-17 09:12:00,60.8,52.9,30.25,ENE,65,0.0,8.0,75,0.00,,,0.00,meteohub,2014-04-17 14:12:00,
2014-04-17 09:17:00,61.3,53.1,30.25,SSW,205,0.0,11.0,74,0.00,,,0.00,meteohub,2014-04-17 14:17:00,
2014-04-17 09:22:00,61.9,53.4,30.25,North,0,1.0,11.0,74,0.00,,,0.00,meteohub,2014-04-17 14:22:00,
2014-04-17 09:27:00,62.1,53.2,30.25,SSE,150,0.0,11.0,73,0.00,,,0.00,meteohub,2014-04-17 14:27:00,
2014-04-17 09:32:00,62.4,53.6,30.26,SE,144,3.0,9.0,73,0.00,,,0.00,meteohub,2014-04-17 14:32:00,
2014-04-17 09:37:00,63.0,53.8,30.26,ENE,78,5.0,8.0,72,0.00,,,0.00,meteohub,2014-04-17 14:37:00,
2014-04-17 09:42:00,63.1,53.6,30.27,SSE,153,1.0,9.0,71,0.00,,,0.00,meteohub,2014-04-17 14:42:00,
2014-04-17 09:47:00,63.1,53.6,30.27,ENE,59,4.0,9.0,71,0.00,,,0.00,meteohub,2014-04-17 14:47:00,
2014-04-17 09:52:00,63.3,53.8,30.27,South,170,0.0,9.0,71,0.00,,,0.00,meteohub,2014-04-17 14:52:00,
2014-04-17 09:57:00,63.9,54.3,30.27,SSW,201,0.0,9.0,71,0.00,,,0.00,meteohub,2014-04-17 14:57:00,
2014-04-17 10:02:00,64.2,54.3,30.27,East,82,1.0,9.0,70,0.00,,,0.00,meteohub,2014-04-17 15:02:00,
2014-04-17 10:07:00,64.2,54.7,30.27,SE,138,3.0,7.0,71,0.00,,,0.00,meteohub,2014-04-17 15:07:00,
2014-04-17 10:12:00,64.6,54.1,30.27,ESE,105,2.0,8.0,69,0.00,,,0.00,meteohub,2014-04-17 15:12:00,
2014-04-17 10:17:00,64.9,54.1,30.27,East,101,2.0,8.0,68,0.00,,,0.00,meteohub,2014-04-17 15:17:00,
2014-04-17 10:22:00,64.8,54.0,30.27,ESE,119,2.0,8.0,68,0.00,,,0.00,meteohub,2014-04-17 15:22:00,
2014-04-17 10:27:00,64.8,54.3,30.27,North,355,3.0,8.0,69,0.00,,,0.00,meteohub,2014-04-17 15:27:00,
2014-04-17 10:32:00,65.1,54.7,30.26,SE,132,6.0,8.0,69,0.00,,,0.00,meteohub,2014-04-17 15:32:00,
2014-04-17 10:37:00,65.8,54.5,30.26,NE,55,2.0,9.0,67,0.00,,,0.00,meteohub,2014-04-17 15:37:00,
2014-04-17 10:42:00,65.8,54.5,30.26,NNW,337,0.0,9.0,67,0.00,,,0.00,meteohub,2014-04-17 15:42:00,
2014-04-17 10:47:00,66.0,55.2,30.26,WSW,238,1.0,7.0,68,0.00,,,0.00,meteohub,2014-04-17 15:47:00,
2014-04-17 10:52:00,66.4,55.0,30.26,East,84,3.0,7.0,67,0.00,,,0.00,meteohub,2014-04-17 15:52:00,
2014-04-17 10:57:00,66.4,54.7,30.26,NE,44,1.0,7.0,66,0.00,,,0.00,meteohub,2014-04-17 15:57:00,
2014-04-17 11:02:00,66.6,55.2,30.25,North,349,9.0,9.0,67,0.00,,,0.00,meteohub,2014-04-17 16:02:00,
2014-04-17 11:07:00,66.9,55.2,30.25,ESE,115,0.0,9.0,66,0.00,,,0.00,meteohub,2014-04-17 16:07:00,
2014-04-17 11:12:00,67.5,55.2,30.25,North,5,1.0,9.0,65,0.00,,,0.00,meteohub,2014-04-17 16:12:00,
2014-04-17 11:17:00,67.6,55.4,30.25,ESE,119,0.0,9.0,65,0.00,,,0.00,meteohub,2014-04-17 16:17:00,
2014-04-17 11:22:00,68.0,55.8,30.25,NE,52,3.0,13.0,65,0.00,,,0.00,meteohub,2014-04-17 16:22:00,
2014-04-17 11:27:00,68.5,55.9,30.25,North,355,3.0,13.0,64,0.00,,,0.00,meteohub,2014-04-17 16:27:00,
2014-04-17 11:32:00,68.5,55.9,30.25,NNW,334,4.0,8.0,64,0.00,,,0.00,meteohub,2014-04-17 16:32:00,
2014-04-17 11:37:00,68.5,55.4,30.24,NNW,346,1.0,8.0,63,0.00,,,0.00,meteohub,2014-04-17 16:37:00,
2014-04-17 11:42:00,69.1,55.6,30.23,South,190,5.0,8.0,62,0.00,,,0.00,meteohub,2014-04-17 16:42:00,
2014-04-17 11:47:00,69.3,55.8,30.23,ENE,58,5.0,8.0,62,0.00,,,0.00,meteohub,2014-04-17 16:47:00,
2014-04-17 11:52:00,70.2,56.1,30.22,SSE,153,3.0,10.0,61,0.00,,,0.00,meteohub,2014-04-17 16:52:00,
2014-04-17 11:57:00,70.3,55.8,30.22,ESE,107,0.0,10.0,60,0.00,,,0.00,meteohub,2014-04-17 16:57:00,
2014-04-17 12:02:00,71.2,56.1,30.22,SE,126,1.0,7.0,59,0.00,,,0.00,meteohub,2014-04-17 17:02:00,
2014-04-17 12:07:00,71.4,56.8,30.22,SE,136,1.0,8.0,60,0.00,,,0.00,meteohub,2014-04-17 17:07:00,
2014-04-17 12:12:00,71.8,56.7,30.22,ENE,63,0.0,8.0,59,0.00,,,0.00,meteohub,2014-04-17 17:12:00,
2014-04-17 12:17:00,71.8,56.1,30.22,NW,318,3.0,8.0,58,0.00,,,0.00,meteohub,2014-04-17 17:17:00,
2014-04-17 12:22:00,71.6,56.1,30.22,SE,136,2.0,8.0,58,0.00,,,0.00,meteohub,2014-04-17 17:22:00,
2014-04-17 12:27:00,72.1,56.5,30.23,NW,317,0.0,10.0,58,0.00,,,0.00,meteohub,2014-04-17 17:27:00,
2014-04-17 12:32:00,72.3,55.8,30.23,SSE,163,2.0,10.0,56,0.00,,,0.00,meteohub,2014-04-17 17:32:00,
2014-04-17 12:37:00,72.1,56.5,30.23,SSE,154,0.0,8.0,58,0.00,,,0.00,meteohub,2014-04-17 17:37:00,
2014-04-17 12:42:00,72.3,56.7,30.23,ENE,72,2.0,8.0,58,0.00,,,0.00,meteohub,2014-04-17 17:42:00,
2014-04-17 12:47:00,72.1,56.5,30.22,ENE,61,2.0,8.0,58,0.00,,,0.00,meteohub,2014-04-17 17:47:00,
2014-04-17 12:52:00,72.1,56.5,30.21,NNW,340,0.0,6.0,58,0.00,,,0.00,meteohub,2014-04-17 17:52:00,
2014-04-17 12:57:00,72.3,56.3,30.21,NNE,23,0.0,9.0,57,0.00,,,0.00,meteohub,2014-04-17 17:57:00,
2014-04-17 13:02:00,72.5,56.5,30.21,North,350,2.0,9.0,57,0.00,,,0.00,meteohub,2014-04-17 18:02:00,
2014-04-17 13:07:00,72.3,56.7,30.21,NE,34,3.0,9.0,58,0.00,,,0.00,meteohub,2014-04-17 18:07:00,
2014-04-17 13:12:00,72.7,57.9,30.20,NE,49,2.0,9.0,60,0.00,,,0.00,meteohub,2014-04-17 18:12:00,
2014-04-17 13:17:00,72.9,56.7,30.19,SSE,160,5.0,9.0,57,0.00,,,0.00,meteohub,2014-04-17 18:17:00,
2014-04-17 13:22:00,72.9,56.7,30.19,NNE,30,0.0,13.0,57,0.00,,,0.00,meteohub,2014-04-17 18:22:00,
2014-04-17 13:27:00,73.0,57.9,30.19,SSE,164,1.0,13.0,59,0.00,,,0.00,meteohub,2014-04-17 18:27:00,
2014-04-17 13:32:00,73.6,56.8,30.20,East,82,0.0,13.0,56,0.00,,,0.00,meteohub,2014-04-17 18:32:00,
2014-04-17 13:37:00,73.9,56.8,30.20,East,90,3.0,10.0,55,0.00,,,0.00,meteohub,2014-04-17 18:37:00,
2014-04-17 13:42:00,73.8,56.7,30.19,SSE,168,3.0,10.0,55,0.00,,,0.00,meteohub,2014-04-17 18:42:00,
2014-04-17 13:47:00,73.6,56.8,30.20,South,180,0.0,10.0,56,0.00,,,0.00,meteohub,2014-04-17 18:47:00,
2014-04-17 13:52:00,73.2,57.0,30.21,NE,35,3.0,8.0,57,0.00,,,0.00,meteohub,2014-04-17 18:52:00,
2014-04-17 13:57:00,73.0,57.4,30.20,ESE,118,1.0,7.0,58,0.00,,,0.00,meteohub,2014-04-17 18:57:00,
2014-04-17 14:02:00,72.9,56.7,30.19,ESE,106,0.0,7.0,57,0.00,,,0.00,meteohub,2014-04-17 19:02:00,
2014-04-17 14:07:00,72.7,57.0,30.19,ESE,123,2.0,8.0,58,0.00,,,0.00,meteohub,2014-04-17 19:07:00,
2014-04-17 14:12:00,72.7,57.6,30.18,ESE,115,0.0,8.0,59,0.00,,,0.00,meteohub,2014-04-17 19:12:00,
2014-04-17 14:17:00,73.0,57.9,30.18,SW,219,1.0,8.0,59,0.00,,,0.00,meteohub,2014-04-17 19:17:00,
2014-04-17 14:22:00,73.0,57.9,30.19,East,96,1.0,13.0,59,0.00,,,0.00,meteohub,2014-04-17 19:22:00,
2014-04-17 14:27:00,73.2,58.1,30.19,SW,215,1.0,13.0,59,0.00,,,0.00,meteohub,2014-04-17 19:27:00,
2014-04-17 14:32:00,73.0,58.3,30.18,SE,136,3.0,13.0,60,0.00,,,0.00,meteohub,2014-04-17 19:32:00,
2014-04-17 14:37:00,72.9,57.7,30.18,NNW,344,0.0,7.0,59,0.00,,,0.00,meteohub,2014-04-17 19:37:00,
2014-04-17 14:42:00,72.7,57.9,30.18,East,88,0.0,7.0,60,0.00,,,0.00,meteohub,2014-04-17 19:42:00,
2014-04-17 14:47:00,72.9,58.1,30.17,East,80,5.0,6.0,60,0.00,,,0.00,meteohub,2014-04-17 19:47:00,
2014-04-17 14:52:00,72.7,57.9,30.16,ENE,71,0.0,6.0,60,0.00,,,0.00,meteohub,2014-04-17 19:52:00,
2014-04-17 14:57:00,72.9,58.1,30.16,NNW,339,0.0,7.0,60,0.00,,,0.00,meteohub,2014-04-17 19:57:00,
2014-04-17 15:02:00,72.9,58.6,30.16,ESE,111,3.0,7.0,61,0.00,,,0.00,meteohub,2014-04-17 20:02:00,
2014-04-17 15:07:00,72.7,58.5,30.16,NNE,30,1.0,7.0,61,0.00,,,0.00,meteohub,2014-04-17 20:07:00,
2014-04-17 15:12:00,72.7,58.8,30.15,North,0,2.0,5.0,62,0.00,,,0.00,meteohub,2014-04-17 20:12:00,
2014-04-17 15:17:00,72.5,58.8,30.15,South,178,0.0,5.0,62,0.00,,,0.00,meteohub,2014-04-17 20:17:00,
2014-04-17 15:22:00,72.3,58.6,30.16,NNW,344,0.0,4.0,62,0.00,,,0.00,meteohub,2014-04-17 20:22:00,
2014-04-17 15:27:00,72.1,58.8,30.16,NE,55,1.0,4.0,63,0.00,,,0.00,meteohub,2014-04-17 20:27:00,
2014-04-17 15:32:00,72.1,59.4,30.16,SE,134,0.0,3.0,64,0.00,,,0.00,meteohub,2014-04-17 20:32:00,
2014-04-17 15:37:00,72.1,58.8,30.16,SSE,163,0.0,2.0,63,0.00,,,0.00,meteohub,2014-04-17 20:37:00,
2014-04-17 15:42:00,72.1,59.4,30.15,SE,132,0.0,3.0,64,0.00,,,0.00,meteohub,2014-04-17 20:42:00,
2014-04-17 15:47:00,72.1,59.7,30.15,SE,135,0.0,3.0,65,0.00,,,0.00,meteohub,2014-04-17 20:47:00,
2014-04-17 15:52:00,72.0,59.5,30.15,NE,50,3.0,3.0,65,0.00,,,0.00,meteohub,2014-04-17 20:52:00,
2014-04-17 15:57:00,72.0,59.5,30.15,East,80,0.0,4.0,65,0.00,,,0.00,meteohub,2014-04-17 20:57:00,
2014-04-17 16:02:00,72.0,59.9,30.15,NE,51,3.0,4.0,66,0.00,,,0.00,meteohub,2014-04-17 21:02:00,
2014-04-17 16:07:00,71.8,59.4,30.15,NE,36,0.0,5.0,65,0.00,,,0.00,meteohub,2014-04-17 21:07:00,
2014-04-17 16:12:00,71.6,59.2,30.15,SE,144,0.0,5.0,65,0.00,,,0.00,meteohub,2014-04-17 21:12:00,
2014-04-17 16:17:00,71.6,59.7,30.16,SE,126,0.0,5.0,66,0.00,,,0.00,meteohub,2014-04-17 21:17:00,
2014-04-17 16:22:00,71.4,59.5,30.16,East,82,0.0,3.0,66,0.00,,,0.00,meteohub,2014-04-17 21:22:00,
2014-04-17 16:27:00,71.4,59.5,30.17,East,86,0.0,3.0,66,0.00,,,0.00,meteohub,2014-04-17 21:27:00,
2014-04-17 16:32:00,71.4,59.5,30.16,East,92,0.0,3.0,66,0.00,,,0.00,meteohub,2014-04-17 21:32:00,
2014-04-17 16:37:00,71.2,60.1,30.16,ESE,107,0.0,1.0,68,0.00,,,0.00,meteohub,2014-04-17 21:37:00,
2014-04-17 16:42:00,71.1,59.5,30.16,ESE,121,0.0,2.0,67,0.00,,,0.00,meteohub,2014-04-17 21:42:00,
2014-04-17 16:47:00,70.9,59.7,30.16,ENE,72,0.0,4.0,68,0.00,,,0.00,meteohub,2014-04-17 21:47:00,
2014-04-17 16:52:00,70.7,59.5,30.16,NE,40,0.0,5.0,68,0.00,,,0.00,meteohub,2014-04-17 21:52:00,
2014-04-17 16:57:00,70.5,59.0,30.15,NNE,18,0.0,7.0,67,0.00,,,0.00,meteohub,2014-04-17 21:57:00,
2014-04-17 17:02:00,70.5,59.0,30.16,NNW,345,1.0,7.0,67,0.00,,,0.00,meteohub,2014-04-17 22:02:00,
2014-04-17 17:07:00,70.5,59.0,30.16,ENE,68,0.0,7.0,67,0.00,,,0.00,meteohub,2014-04-17 22:07:00,
2014-04-17 17:12:00,70.5,59.0,30.16,NE,43,0.0,6.0,67,0.00,,,0.00,meteohub,2014-04-17 22:12:00,
2014-04-17 17:17:00,70.3,58.8,30.16,ENE,63,4.0,4.0,67,0.00,,,0.00,meteohub,2014-04-17 22:17:00,
2014-04-17 17:22:00,70.2,59.2,30.15,NE,40,1.0,4.0,68,0.00,,,0.00,meteohub,2014-04-17 22:22:00,
2014-04-17 17:27:00,70.2,59.5,30.15,NE,34,0.0,4.0,69,0.00,,,0.00,meteohub,2014-04-17 22:27:00,
2014-04-17 17:32:00,70.0,59.4,30.15,NNE,31,2.0,4.0,69,0.00,,,0.00,meteohub,2014-04-17 22:32:00,
2014-04-17 17:37:00,70.0,59.4,30.15,NNE,16,1.0,5.0,69,0.00,,,0.00,meteohub,2014-04-17 22:37:00,
2014-04-17 17:42:00,70.0,59.4,30.15,NNE,21,2.0,5.0,69,0.00,,,0.00,meteohub,2014-04-17 22:42:00,
2014-04-17 17:47:00,70.2,59.5,30.15,NNW,344,2.0,7.0,69,0.00,,,0.00,meteohub,2014-04-17 22:47:00,
2014-04-17 17:52:00,70.2,59.2,30.15,NE,39,2.0,7.0,68,0.00,,,0.00,meteohub,2014-04-17 22:52:00,
2014-04-17 17:57:00,70.0,59.0,30.15,North,351,2.0,8.0,68,0.00,,,0.00,meteohub,2014-04-17 22:57:00,
2014-04-17 18:02:00,70.0,59.0,30.15,East,92,1.0,9.0,68,0.00,,,0.00,meteohub,2014-04-17 23:02:00,
2014-04-17 18:07:00,69.6,59.0,30.15,NNW,340,2.0,9.0,69,0.00,,,0.00,meteohub,2014-04-17 23:07:00,
2014-04-17 18:12:00,69.6,59.0,30.15,ENE,63,4.0,9.0,69,0.00,,,0.00,meteohub,2014-04-17 23:12:00,
2014-04-17 18:17:00,69.4,58.8,30.16,East,86,0.0,7.0,69,0.00,,,0.00,meteohub,2014-04-17 23:17:00,
2014-04-17 18:22:00,69.4,58.8,30.16,NNE,27,7.0,8.0,69,0.00,,,0.00,meteohub,2014-04-17 23:22:00,
2014-04-17 18:27:00,69.6,59.0,30.16,North,9,0.0,8.0,69,0.00,,,0.00,meteohub,2014-04-17 23:27:00,
2014-04-17 18:32:00,69.4,58.8,30.15,ENE,76,5.0,8.0,69,0.00,,,0.00,meteohub,2014-04-17 23:32:00,
2014-04-17 18:37:00,69.3,59.0,30.15,NW,309,3.0,8.0,70,0.00,,,0.00,meteohub,2014-04-17 23:37:00,
2014-04-17 18:42:00,69.1,58.8,30.15,South,173,3.0,10.0,70,0.00,,,0.00,meteohub,2014-04-17 23:42:00,
2014-04-17 18:47:00,68.9,58.6,30.15,NNE,28,2.0,10.0,70,0.00,,,0.00,meteohub,2014-04-17 23:47:00,
2014-04-17 18:52:00,68.7,58.5,30.15,NE,55,5.0,12.0,70,0.00,,,0.00,meteohub,2014-04-17 23:52:00,
2014-04-17 18:57:00,68.5,58.3,30.14,North,355,1.0,12.0,70,0.00,,,0.00,meteohub,2014-04-17 23:57:00,
2014-04-17 19:02:00,68.4,58.6,30.14,NE,50,1.0,12.0,71,0.00,,,0.00,meteohub,2014-04-18 00:02:00,
2014-04-17 19:12:00,68.4,58.6,30.15,NNE,28,4.0,8.0,71,0.00,,,0.00,meteohub,2014-04-18 00:12:00,
2014-04-17 19:17:00,68.2,58.5,30.14,North,5,2.0,8.0,71,0.00,,,0.00,meteohub,2014-04-18 00:17:00,
2014-04-17 19:22:00,68.2,58.5,30.14,NE,46,2.0,8.0,71,0.00,,,0.00,meteohub,2014-04-18 00:22:00,
2014-04-17 19:27:00,68.0,58.6,30.14,North,5,0.0,7.0,72,0.00,,,0.00,meteohub,2014-04-18 00:27:00,
2014-04-17 19:32:00,67.8,58.5,30.14,NE,38,0.0,7.0,72,0.00,,,0.00,meteohub,2014-04-18 00:32:00,
2014-04-17 19:37:00,67.8,58.5,30.14,North,0,2.0,7.0,72,0.00,,,0.00,meteohub,2014-04-18 00:37:00,
2014-04-17 19:42:00,67.6,58.3,30.14,NE,53,2.0,8.0,72,0.00,,,0.00,meteohub,2014-04-18 00:42:00,
2014-04-17 19:47:00,67.6,58.3,30.14,ESE,115,3.0,9.0,72,0.00,,,0.00,meteohub,2014-04-18 00:47:00,
2014-04-17 19:52:00,67.8,58.5,30.14,ENE,72,5.0,9.0,72,0.00,,,0.00,meteohub,2014-04-18 00:52:00,
2014-04-17 19:57:00,67.6,58.3,30.14,NNE,28,2.0,10.0,72,0.00,,,0.00,meteohub,2014-04-18 00:57:00,
2014-04-17 20:02:00,67.6,58.3,30.14,ENE,75,0.0,10.0,72,0.00,,,0.00,meteohub,2014-04-18 01:02:00,
2014-04-17 20:07:00,67.5,58.5,30.14,NNE,17,0.0,10.0,73,0.00,,,0.00,meteohub,2014-04-18 01:07:00,
2014-04-17 20:12:00,67.5,58.5,30.15,NE,53,0.0,10.0,73,0.00,,,0.00,meteohub,2014-04-18 01:12:00,
2014-04-17 20:17:00,67.5,58.5,30.15,NNE,22,1.0,8.0,73,0.00,,,0.00,meteohub,2014-04-18 01:17:00,
2014-04-17 20:22:00,67.3,58.3,30.15,NE,51,2.0,7.0,73,0.00,,,0.00,meteohub,2014-04-18 01:22:00,
2014-04-17 20:27:00,67.3,58.3,30.15,NE,44,2.0,11.0,73,0.00,,,0.00,meteohub,2014-04-18 01:27:00,
2014-04-17 20:32:00,67.3,58.3,30.15,NE,39,6.0,11.0,73,0.00,,,0.00,meteohub,2014-04-18 01:32:00,
2014-04-17 20:37:00,67.3,58.3,30.16,ENE,59,2.0,10.0,73,0.00,,,0.00,meteohub,2014-04-18 01:37:00,
2014-04-17 20:42:00,67.3,58.3,30.16,ESE,117,3.0,10.0,73,0.00,,,0.00,meteohub,2014-04-18 01:42:00,
2014-04-17 20:47:00,67.3,58.6,30.17,SW,219,3.0,9.0,74,0.00,,,0.00,meteohub,2014-04-18 01:47:00,
2014-04-17 20:52:00,66.9,58.8,30.17,ENE,74,2.0,9.0,75,0.00,,,0.00,meteohub,2014-04-18 01:52:00,
2014-04-17 20:57:00,66.4,59.4,30.17,SE,134,0.0,10.0,78,0.00,,,0.00,meteohub,2014-04-18 01:57:00,
2014-04-17 21:02:00,65.8,59.5,30.17,East,80,0.0,10.0,80,0.00,,,0.00,meteohub,2014-04-18 02:02:00,
2014-04-17 21:07:00,65.5,59.5,30.17,ESE,105,2.0,9.0,81,0.00,,,0.00,meteohub,2014-04-18 02:07:00,
2014-04-17 21:12:00,65.1,59.5,30.17,NE,46,2.0,4.0,82,0.00,,,0.00,meteohub,2014-04-18 02:12:00,
2014-04-17 21:17:00,64.6,59.9,30.18,East,82,0.0,4.0,85,0.00,,,0.00,meteohub,2014-04-18 02:17:00,
2014-04-17 21:22:00,64.2,59.9,30.18,ENE,63,0.0,7.0,86,0.00,,,0.00,meteohub,2014-04-18 02:22:00,
2014-04-17 21:27:00,63.7,60.1,30.18,NE,46,1.0,7.0,88,0.09,,,0.01,meteohub,2014-04-18 02:27:00,
2014-04-17 21:32:00,62.8,59.7,30.18,NE,44,3.0,9.0,90,0.12,,,0.12,meteohub,2014-04-18 02:32:00,
2014-04-17 21:37:00,62.2,59.5,30.18,ENE,58,7.0,9.0,91,0.15,,,0.15,meteohub,2014-04-18 02:37:00,
2014-04-17 21:42:00,61.7,59.4,30.18,NE,51,2.0,9.0,92,0.18,,,0.18,meteohub,2014-04-18 02:42:00,
2014-04-17 21:47:00,61.5,59.5,30.19,NNE,31,2.0,7.0,93,0.21,,,0.21,meteohub,2014-04-18 02:47:00,